sensor_id;sensor_type;location;lat;lon;timestamp;temperature;humidity
3232;DHT22;1628;48.884;9.210;2022-11-20T00:00:16;6.40;99.90
3232;DHT22;1628;48.884;9.210;2022-11-20T00:02:43;6.40;99.90
3232;DHT22;1628;48.884;9.210;2022-11-20T00:05:11;6.30;99.90
3232;DHT22;1628;48.884;9.210;2022-11-20T00:07:37;6.30;99.90
3232;DHT22;1628;48.884;9.210;2022-11-20T00:10:05;6.20;99.90
3232;DHT22;1628;48.884;9.210;2022-11-20T00:12:31;6.20;99.90
3232;DHT22;1628;48.884;9.210;2022-11-20T00:14:58;6.20;99.90
3232;DHT22;1628;48.884;9.210;2022-11-20T00:17:25;6.20;99.90
3232;DHT22;1628;48.884;9.210;2022-11-20T00:19:52;6.20;99.90
3232;DHT22;1628;48.884;9.210;2022-11-20T00:22:20;6.20;99.90
3232;DHT22;1628;48.884;9.210;2022-11-20T00:24:46;6.20;99.90
3232;DHT22;1628;48.884;9.210;2022-11-20T00:27:13;6.10;99.90
3232;DHT22;1628;48.884;9.210;2022-11-20T00:29:40;6.10;99.90
3232;DHT22;1628;48.884;9.210;2022-11-20T00:32:06;6.10;99.90
3232;DHT22;1628;48.884;9.210;2022-11-20T00:34:33;6.10;99.90
3232;DHT22;1628;48.884;9.210;2022-11-20T00:36:59;6.20;99.90
3232;DHT22;1628;48.884;9.210;2022-11-20T00:39:27;6.20;99.90
3232;DHT22;1628;48.884;9.210;2022-11-20T00:41:54;6.20;99.90
3232;DHT22;1628;48.884;9.210;2022-11-20T00:44:21;6.30;99.90
3232;DHT22;1628;48.884;9.210;2022-11-20T00:46:47;6.30;99.90
3232;DHT22;1628;48.884;9.210;2022-11-20T00:49:14;6.30;99.90
3232;DHT22;1628;48.884;9.210;2022-11-20T00:51:40;6.40;99.90
3232;DHT22;1628;48.884;9.210;2022-11-20T00:54:07;6.40;99.90
3232;DHT22;1628;48.884;9.210;2022-11-20T00:56:35;6.50;99.90
3232;DHT22;1628;48.884;9.210;2022-11-20T00:59:02;6.50;99.90
3232;DHT22;1628;48.884;9.210;2022-11-20T01:01:29;6.50;99.90
3232;DHT22;1628;48.884;9.210;2022-11-20T01:03:57;6.40;99.90
3232;DHT22;1628;48.884;9.210;2022-11-20T01:06:26;6.40;99.90
3232;DHT22;1628;48.884;9.210;2022-11-20T01:08:55;6.40;99.90
3232;DHT22;1628;48.884;9.210;2022-11-20T01:11:24;6.40;99.90
3232;DHT22;1628;48.884;9.210;2022-11-20T01:13:53;6.40;99.90
3232;DHT22;1628;48.884;9.210;2022-11-20T01:16:22;6.40;99.90
3232;DHT22;1628;48.884;9.210;2022-11-20T01:18:51;6.40;99.90
3232;DHT22;1628;48.884;9.210;2022-11-20T01:21:19;6.40;99.90
3232;DHT22;1628;48.884;9.210;2022-11-20T01:23:48;6.40;99.90
3232;DHT22;1628;48.884;9.210;2022-11-20T01:26:17;6.40;99.90
3232;DHT22;1628;48.884;9.210;2022-11-20T01:28:44;6.40;99.90
3232;DHT22;1628;48.884;9.210;2022-11-20T01:31:14;6.40;99.90
3232;DHT22;1628;48.884;9.210;2022-11-20T01:33:42;6.40;99.90
3232;DHT22;1628;48.884;9.210;2022-11-20T01:36:10;6.40;99.90
3232;DHT22;1628;48.884;9.210;2022-11-20T01:38:37;6.30;99.90
3232;DHT22;1628;48.884;9.210;2022-11-20T01:41:04;6.30;99.90
3232;DHT22;1628;48.884;9.210;2022-11-20T01:43:31;6.20;99.90
3232;DHT22;1628;48.884;9.210;2022-11-20T01:46:15;6.10;99.90
3232;DHT22;1628;48.884;9.210;2022-11-20T01:48:46;6.10;99.90
3232;DHT22;1628;48.884;9.210;2022-11-20T01:51:19;6.10;99.90
3232;DHT22;1628;48.884;9.210;2022-11-20T01:53:47;6.10;99.90
3232;DHT22;1628;48.884;9.210;2022-11-20T01:56:15;6.00;99.90
3232;DHT22;1628;48.884;9.210;2022-11-20T01:58:48;6.00;99.90
3232;DHT22;1628;48.884;9.210;2022-11-20T02:01:16;6.00;99.90
3232;DHT22;1628;48.884;9.210;2022-11-20T02:03:44;6.00;99.90
3232;DHT22;1628;48.884;9.210;2022-11-20T02:06:14;6.00;99.90
3232;DHT22;1628;48.884;9.210;2022-11-20T02:08:43;6.00;99.90
3232;DHT22;1628;48.884;9.210;2022-11-20T02:11:09;6.10;99.90
3232;DHT22;1628;48.884;9.210;2022-11-20T02:13:38;6.10;99.90
3232;DHT22;1628;48.884;9.210;2022-11-20T02:16:21;6.10;99.90
3232;DHT22;1628;48.884;9.210;2022-11-20T02:18:48;6.10;99.90
3232;DHT22;1628;48.884;9.210;2022-11-20T02:21:24;6.20;99.90
3232;DHT22;1628;48.884;9.210;2022-11-20T02:24:07;6.20;99.90
3232;DHT22;1628;48.884;9.210;2022-11-20T02:26:39;6.20;99.90
3232;DHT22;1628;48.884;9.210;2022-11-20T02:29:07;6.20;99.90
3232;DHT22;1628;48.884;9.210;2022-11-20T02:31:37;6.20;99.90
3232;DHT22;1628;48.884;9.210;2022-11-20T02:34:04;6.20;99.90
3232;DHT22;1628;48.884;9.210;2022-11-20T02:36:32;6.20;99.90
3232;DHT22;1628;48.884;9.210;2022-11-20T02:38:59;6.30;99.90
3232;DHT22;1628;48.884;9.210;2022-11-20T02:41:35;6.40;99.90
3232;DHT22;1628;48.884;9.210;2022-11-20T02:44:03;6.40;99.90
3232;DHT22;1628;48.884;9.210;2022-11-20T02:46:30;6.40;99.90
3232;DHT22;1628;48.884;9.210;2022-11-20T02:48:56;6.40;99.90
3232;DHT22;1628;48.884;9.210;2022-11-20T02:51:23;6.40;99.90
3232;DHT22;1628;48.884;9.210;2022-11-20T02:53:50;6.40;99.90
3232;DHT22;1628;48.884;9.210;2022-11-20T02:56:17;6.50;99.90
3232;DHT22;1628;48.884;9.210;2022-11-20T02:58:45;6.50;99.90
3232;DHT22;1628;48.884;9.210;2022-11-20T03:01:12;6.50;99.90
3232;DHT22;1628;48.884;9.210;2022-11-20T03:03:39;6.50;99.90
3232;DHT22;1628;48.884;9.210;2022-11-20T03:06:06;6.50;99.90
3232;DHT22;1628;48.884;9.210;2022-11-20T03:08:33;6.50;99.90
3232;DHT22;1628;48.884;9.210;2022-11-20T03:11:03;6.50;99.90
3232;DHT22;1628;48.884;9.210;2022-11-20T03:13:30;6.50;99.90
3232;DHT22;1628;48.884;9.210;2022-11-20T03:15:58;6.50;99.90
3232;DHT22;1628;48.884;9.210;2022-11-20T03:18:27;6.50;99.90
3232;DHT22;1628;48.884;9.210;2022-11-20T03:20:57;6.50;99.90
3232;DHT22;1628;48.884;9.210;2022-11-20T03:23:24;6.50;99.90
3232;DHT22;1628;48.884;9.210;2022-11-20T03:25:50;6.50;99.90
3232;DHT22;1628;48.884;9.210;2022-11-20T03:28:17;6.50;99.90
3232;DHT22;1628;48.884;9.210;2022-11-20T03:30:43;6.50;99.90
3232;DHT22;1628;48.884;9.210;2022-11-20T03:33:11;6.50;99.90
3232;DHT22;1628;48.884;9.210;2022-11-20T03:35:38;6.50;99.90
3232;DHT22;1628;48.884;9.210;2022-11-20T03:38:05;6.50;99.90
3232;DHT22;1628;48.884;9.210;2022-11-20T03:40:33;6.50;99.90
3232;DHT22;1628;48.884;9.210;2022-11-20T03:43:00;6.50;99.90
3232;DHT22;1628;48.884;9.210;2022-11-20T03:45:27;6.50;99.90
3232;DHT22;1628;48.884;9.210;2022-11-20T03:47:54;6.50;99.90
3232;DHT22;1628;48.884;9.210;2022-11-20T03:50:22;6.50;99.90
3232;DHT22;1628;48.884;9.210;2022-11-20T03:52:48;6.50;99.90
3232;DHT22;1628;48.884;9.210;2022-11-20T03:55:15;6.50;99.90
3232;DHT22;1628;48.884;9.210;2022-11-20T03:57:42;6.40;99.90
3232;DHT22;1628;48.884;9.210;2022-11-20T04:00:09;6.40;99.90
3232;DHT22;1628;48.884;9.210;2022-11-20T04:02:36;6.40;99.90
3232;DHT22;1628;48.884;9.210;2022-11-20T04:05:03;6.40;99.90
3232;DHT22;1628;48.884;9.210;2022-11-20T04:07:34;6.40;99.90
3232;DHT22;1628;48.884;9.210;2022-11-20T04:10:00;6.50;99.90
3232;DHT22;1628;48.884;9.210;2022-11-20T04:12:27;6.50;99.90
3232;DHT22;1628;48.884;9.210;2022-11-20T04:14:57;6.40;99.90
3232;DHT22;1628;48.884;9.210;2022-11-20T04:17:24;6.40;99.90
3232;DHT22;1628;48.884;9.210;2022-11-20T04:19:51;6.40;99.90
3232;DHT22;1628;48.884;9.210;2022-11-20T04:22:18;6.50;99.90
3232;DHT22;1628;48.884;9.210;2022-11-20T04:24:46;6.50;99.90
3232;DHT22;1628;48.884;9.210;2022-11-20T04:27:12;6.50;99.90
3232;DHT22;1628;48.884;9.210;2022-11-20T04:29:39;6.50;99.90
3232;DHT22;1628;48.884;9.210;2022-11-20T04:32:06;6.50;99.90
3232;DHT22;1628;48.884;9.210;2022-11-20T04:34:32;6.50;99.90
3232;DHT22;1628;48.884;9.210;2022-11-20T04:37:00;6.60;99.90
3232;DHT22;1628;48.884;9.210;2022-11-20T04:39:27;6.60;99.90
3232;DHT22;1628;48.884;9.210;2022-11-20T04:41:55;6.60;99.90
3232;DHT22;1628;48.884;9.210;2022-11-20T04:44:36;6.50;99.90
3232;DHT22;1628;48.884;9.210;2022-11-20T04:47:02;6.60;99.90
3232;DHT22;1628;48.884;9.210;2022-11-20T04:49:29;6.60;99.90
3232;DHT22;1628;48.884;9.210;2022-11-20T04:51:56;6.60;99.90
3232;DHT22;1628;48.884;9.210;2022-11-20T04:54:23;6.60;99.90
3232;DHT22;1628;48.884;9.210;2022-11-20T04:56:50;6.70;99.90
3232;DHT22;1628;48.884;9.210;2022-11-20T04:59:18;6.60;99.90
3232;DHT22;1628;48.884;9.210;2022-11-20T05:01:45;6.60;99.90
3232;DHT22;1628;48.884;9.210;2022-11-20T05:04:12;6.60;99.90
3232;DHT22;1628;48.884;9.210;2022-11-20T05:06:38;6.70;99.90
3232;DHT22;1628;48.884;9.210;2022-11-20T05:09:05;6.70;99.90
3232;DHT22;1628;48.884;9.210;2022-11-20T05:11:32;6.70;99.90
3232;DHT22;1628;48.884;9.210;2022-11-20T05:13:59;6.60;99.90
3232;DHT22;1628;48.884;9.210;2022-11-20T05:16:27;6.60;99.90
3232;DHT22;1628;48.884;9.210;2022-11-20T05:18:55;6.70;99.90
3232;DHT22;1628;48.884;9.210;2022-11-20T05:21:22;6.60;99.90
3232;DHT22;1628;48.884;9.210;2022-11-20T05:23:48;6.60;99.90
3232;DHT22;1628;48.884;9.210;2022-11-20T05:26:17;6.60;99.90
3232;DHT22;1628;48.884;9.210;2022-11-20T05:28:44;6.60;99.90
3232;DHT22;1628;48.884;9.210;2022-11-20T05:31:14;6.60;99.90
3232;DHT22;1628;48.884;9.210;2022-11-20T05:33:44;6.60;99.90
3232;DHT22;1628;48.884;9.210;2022-11-20T05:36:11;6.70;99.90
3232;DHT22;1628;48.884;9.210;2022-11-20T05:38:39;6.70;99.90
3232;DHT22;1628;48.884;9.210;2022-11-20T05:41:07;6.70;99.90
3232;DHT22;1628;48.884;9.210;2022-11-20T05:43:35;6.60;99.90
3232;DHT22;1628;48.884;9.210;2022-11-20T05:46:02;6.60;99.90
3232;DHT22;1628;48.884;9.210;2022-11-20T05:48:29;6.70;99.90
3232;DHT22;1628;48.884;9.210;2022-11-20T05:50:58;6.70;99.90
3232;DHT22;1628;48.884;9.210;2022-11-20T05:53:25;6.70;99.90
3232;DHT22;1628;48.884;9.210;2022-11-20T05:55:58;6.70;99.90
3232;DHT22;1628;48.884;9.210;2022-11-20T05:58:25;6.70;99.90
3232;DHT22;1628;48.884;9.210;2022-11-20T06:00:52;6.70;99.90
3232;DHT22;1628;48.884;9.210;2022-11-20T06:03:19;6.70;99.90
3232;DHT22;1628;48.884;9.210;2022-11-20T06:05:46;6.70;99.90
3232;DHT22;1628;48.884;9.210;2022-11-20T06:08:14;6.70;99.90
3232;DHT22;1628;48.884;9.210;2022-11-20T06:10:40;6.70;99.90
3232;DHT22;1628;48.884;9.210;2022-11-20T06:13:07;6.70;99.90
3232;DHT22;1628;48.884;9.210;2022-11-20T06:15:34;6.70;99.90
3232;DHT22;1628;48.884;9.210;2022-11-20T06:18:00;6.70;99.90
3232;DHT22;1628;48.884;9.210;2022-11-20T06:20:27;6.80;99.90
3232;DHT22;1628;48.884;9.210;2022-11-20T06:22:54;6.70;99.90
3232;DHT22;1628;48.884;9.210;2022-11-20T06:25:22;6.70;99.90
3232;DHT22;1628;48.884;9.210;2022-11-20T06:27:48;6.70;99.90
3232;DHT22;1628;48.884;9.210;2022-11-20T06:30:15;6.80;99.90
3232;DHT22;1628;48.884;9.210;2022-11-20T06:32:42;6.80;99.90
3232;DHT22;1628;48.884;9.210;2022-11-20T06:35:10;6.80;99.90
3232;DHT22;1628;48.884;9.210;2022-11-20T06:37:37;6.80;99.90
3232;DHT22;1628;48.884;9.210;2022-11-20T06:40:04;6.80;99.90
3232;DHT22;1628;48.884;9.210;2022-11-20T06:42:33;6.90;99.90
3232;DHT22;1628;48.884;9.210;2022-11-20T06:45:00;6.80;99.90
3232;DHT22;1628;48.884;9.210;2022-11-20T06:47:27;6.90;99.90
3232;DHT22;1628;48.884;9.210;2022-11-20T06:49:53;6.80;99.90
3232;DHT22;1628;48.884;9.210;2022-11-20T06:52:20;6.90;99.90
3232;DHT22;1628;48.884;9.210;2022-11-20T06:54:47;6.90;99.90
3232;DHT22;1628;48.884;9.210;2022-11-20T06:57:13;6.90;99.90
3232;DHT22;1628;48.884;9.210;2022-11-20T06:59:41;6.90;99.90
3232;DHT22;1628;48.884;9.210;2022-11-20T07:02:09;6.90;99.90
3232;DHT22;1628;48.884;9.210;2022-11-20T07:04:36;6.90;99.90
3232;DHT22;1628;48.884;9.210;2022-11-20T07:07:02;6.90;99.90
3232;DHT22;1628;48.884;9.210;2022-11-20T07:09:29;6.90;99.90
3232;DHT22;1628;48.884;9.210;2022-11-20T07:11:56;6.90;99.90
3232;DHT22;1628;48.884;9.210;2022-11-20T07:14:22;6.90;99.90
3232;DHT22;1628;48.884;9.210;2022-11-20T07:16:50;7.00;99.90
3232;DHT22;1628;48.884;9.210;2022-11-20T07:19:17;7.00;99.90
3232;DHT22;1628;48.884;9.210;2022-11-20T07:21:44;7.00;99.90
3232;DHT22;1628;48.884;9.210;2022-11-20T07:24:10;7.10;99.90
3232;DHT22;1628;48.884;9.210;2022-11-20T07:26:37;7.20;99.90
3232;DHT22;1628;48.884;9.210;2022-11-20T07:29:04;7.20;99.90
3232;DHT22;1628;48.884;9.210;2022-11-20T07:31:30;7.30;99.90
3232;DHT22;1628;48.884;9.210;2022-11-20T07:33:58;7.30;99.90
3232;DHT22;1628;48.884;9.210;2022-11-20T07:36:25;7.40;99.90
3232;DHT22;1628;48.884;9.210;2022-11-20T07:38:52;7.40;99.90
3232;DHT22;1628;48.884;9.210;2022-11-20T07:41:19;7.50;99.90
3232;DHT22;1628;48.884;9.210;2022-11-20T07:43:46;7.60;99.90
3232;DHT22;1628;48.884;9.210;2022-11-20T07:46:13;7.60;99.90
3232;DHT22;1628;48.884;9.210;2022-11-20T07:48:39;7.70;99.90
3232;DHT22;1628;48.884;9.210;2022-11-20T07:51:07;7.80;99.90
3232;DHT22;1628;48.884;9.210;2022-11-20T07:53:34;7.80;99.90
3232;DHT22;1628;48.884;9.210;2022-11-20T07:56:01;7.90;99.90
3232;DHT22;1628;48.884;9.210;2022-11-20T07:58:29;7.90;99.90
3232;DHT22;1628;48.884;9.210;2022-11-20T08:00:55;7.90;99.90
3232;DHT22;1628;48.884;9.210;2022-11-20T08:03:22;7.90;99.90
3232;DHT22;1628;48.884;9.210;2022-11-20T08:05:49;7.90;99.90
3232;DHT22;1628;48.884;9.210;2022-11-20T08:08:17;7.90;99.90
3232;DHT22;1628;48.884;9.210;2022-11-20T08:10:43;7.90;99.90
3232;DHT22;1628;48.884;9.210;2022-11-20T08:13:10;7.90;99.90
3232;DHT22;1628;48.884;9.210;2022-11-20T08:15:55;7.90;99.90
3232;DHT22;1628;48.884;9.210;2022-11-20T08:18:21;7.90;99.90
3232;DHT22;1628;48.884;9.210;2022-11-20T08:20:48;8.00;99.90
3232;DHT22;1628;48.884;9.210;2022-11-20T08:23:16;8.00;99.90
3232;DHT22;1628;48.884;9.210;2022-11-20T08:25:43;8.10;99.90
3232;DHT22;1628;48.884;9.210;2022-11-20T08:28:09;8.20;99.90
3232;DHT22;1628;48.884;9.210;2022-11-20T08:30:36;8.30;99.90
3232;DHT22;1628;48.884;9.210;2022-11-20T08:33:04;8.30;99.90
3232;DHT22;1628;48.884;9.210;2022-11-20T08:35:33;8.40;99.90
3232;DHT22;1628;48.884;9.210;2022-11-20T08:38:01;8.30;99.90
3232;DHT22;1628;48.884;9.210;2022-11-20T08:40:29;8.30;99.90
3232;DHT22;1628;48.884;9.210;2022-11-20T08:42:56;8.30;99.90
3232;DHT22;1628;48.884;9.210;2022-11-20T08:45:22;8.40;99.90
3232;DHT22;1628;48.884;9.210;2022-11-20T08:47:49;8.40;99.90
3232;DHT22;1628;48.884;9.210;2022-11-20T08:50:16;8.30;99.90
3232;DHT22;1628;48.884;9.210;2022-11-20T08:52:44;8.30;99.90
3232;DHT22;1628;48.884;9.210;2022-11-20T08:55:11;8.30;99.90
3232;DHT22;1628;48.884;9.210;2022-11-20T08:57:39;8.30;99.90
3232;DHT22;1628;48.884;9.210;2022-11-20T09:00:09;8.40;99.90
3232;DHT22;1628;48.884;9.210;2022-11-20T09:02:36;8.30;99.90
3232;DHT22;1628;48.884;9.210;2022-11-20T09:05:03;8.30;99.90
3232;DHT22;1628;48.884;9.210;2022-11-20T09:07:30;8.30;99.90
3232;DHT22;1628;48.884;9.210;2022-11-20T09:09:56;8.40;99.90
3232;DHT22;1628;48.884;9.210;2022-11-20T09:12:24;8.40;99.90
3232;DHT22;1628;48.884;9.210;2022-11-20T09:14:51;8.40;99.90
3232;DHT22;1628;48.884;9.210;2022-11-20T09:17:18;8.40;99.90
3232;DHT22;1628;48.884;9.210;2022-11-20T09:19:46;8.40;99.90
3232;DHT22;1628;48.884;9.210;2022-11-20T09:22:13;8.40;99.90
3232;DHT22;1628;48.884;9.210;2022-11-20T09:24:39;8.40;99.90
3232;DHT22;1628;48.884;9.210;2022-11-20T09:27:07;8.30;99.90
3232;DHT22;1628;48.884;9.210;2022-11-20T09:29:33;8.30;99.90
3232;DHT22;1628;48.884;9.210;2022-11-20T09:32:01;8.30;99.90
3232;DHT22;1628;48.884;9.210;2022-11-20T09:34:28;8.30;99.90
3232;DHT22;1628;48.884;9.210;2022-11-20T09:36:55;8.30;99.90
3232;DHT22;1628;48.884;9.210;2022-11-20T09:39:21;8.30;99.90
3232;DHT22;1628;48.884;9.210;2022-11-20T09:42:08;8.30;99.90
3232;DHT22;1628;48.884;9.210;2022-11-20T09:44:49;8.30;99.90
3232;DHT22;1628;48.884;9.210;2022-11-20T09:47:27;8.30;99.90
3232;DHT22;1628;48.884;9.210;2022-11-20T09:50:07;8.30;99.90
3232;DHT22;1628;48.884;9.210;2022-11-20T09:52:49;8.30;99.90
3232;DHT22;1628;48.884;9.210;2022-11-20T09:55:21;8.30;99.90
3232;DHT22;1628;48.884;9.210;2022-11-20T09:57:51;8.40;99.90
3232;DHT22;1628;48.884;9.210;2022-11-20T10:00:18;8.40;99.90
3232;DHT22;1628;48.884;9.210;2022-11-20T10:02:52;8.50;99.90
3232;DHT22;1628;48.884;9.210;2022-11-20T10:05:24;8.40;99.90
3232;DHT22;1628;48.884;9.210;2022-11-20T10:08:07;8.40;99.90
3232;DHT22;1628;48.884;9.210;2022-11-20T10:10:42;8.30;99.90
3232;DHT22;1628;48.884;9.210;2022-11-20T10:13:27;8.30;99.90
3232;DHT22;1628;48.884;9.210;2022-11-20T10:16:06;8.30;99.90
3232;DHT22;1628;48.884;9.210;2022-11-20T10:18:46;8.30;99.90
3232;DHT22;1628;48.884;9.210;2022-11-20T10:21:23;8.40;99.90
3232;DHT22;1628;48.884;9.210;2022-11-20T10:24:10;8.40;99.90
3232;DHT22;1628;48.884;9.210;2022-11-20T10:26:47;8.40;99.90
3232;DHT22;1628;48.884;9.210;2022-11-20T10:29:21;8.40;99.90
3232;DHT22;1628;48.884;9.210;2022-11-20T10:31:52;8.30;99.90
3232;DHT22;1628;48.884;9.210;2022-11-20T10:34:25;8.30;99.90
3232;DHT22;1628;48.884;9.210;2022-11-20T10:36:55;8.30;99.90
3232;DHT22;1628;48.884;9.210;2022-11-20T10:39:29;8.30;99.90
3232;DHT22;1628;48.884;9.210;2022-11-20T10:41:59;8.40;99.90
3232;DHT22;1628;48.884;9.210;2022-11-20T10:44:28;8.50;99.90
3232;DHT22;1628;48.884;9.210;2022-11-20T10:47:14;8.50;99.90
3232;DHT22;1628;48.884;9.210;2022-11-20T10:49:43;8.50;99.90
3232;DHT22;1628;48.884;9.210;2022-11-20T10:52:18;8.40;99.90
3232;DHT22;1628;48.884;9.210;2022-11-20T10:54:51;8.30;99.90
3232;DHT22;1628;48.884;9.210;2022-11-20T10:57:26;8.30;99.90
3232;DHT22;1628;48.884;9.210;2022-11-20T11:00:02;8.20;99.90
3232;DHT22;1628;48.884;9.210;2022-11-20T11:02:35;8.10;99.90
3232;DHT22;1628;48.884;9.210;2022-11-20T11:05:15;8.10;99.90
3232;DHT22;1628;48.884;9.210;2022-11-20T11:07:44;8.10;99.90
3232;DHT22;1628;48.884;9.210;2022-11-20T11:10:15;8.10;99.90
3232;DHT22;1628;48.884;9.210;2022-11-20T11:12:44;8.10;99.90
3232;DHT22;1628;48.884;9.210;2022-11-20T11:15:23;8.20;99.90
3232;DHT22;1628;48.884;9.210;2022-11-20T11:17:50;8.20;99.90
3232;DHT22;1628;48.884;9.210;2022-11-20T11:20:20;8.30;99.90
3232;DHT22;1628;48.884;9.210;2022-11-20T11:22:48;8.40;99.90
3232;DHT22;1628;48.884;9.210;2022-11-20T11:25:24;8.40;99.90
3232;DHT22;1628;48.884;9.210;2022-11-20T11:27:52;8.50;99.90
3232;DHT22;1628;48.884;9.210;2022-11-20T11:30:20;8.50;99.90
3232;DHT22;1628;48.884;9.210;2022-11-20T11:32:47;8.60;99.90
3232;DHT22;1628;48.884;9.210;2022-11-20T11:35:24;8.80;99.90
3232;DHT22;1628;48.884;9.210;2022-11-20T11:37:52;9.30;99.90
3232;DHT22;1628;48.884;9.210;2022-11-20T11:40:21;9.60;99.90
3232;DHT22;1628;48.884;9.210;2022-11-20T11:42:54;9.90;99.90
3232;DHT22;1628;48.884;9.210;2022-11-20T11:45:21;10.10;99.90
3232;DHT22;1628;48.884;9.210;2022-11-20T11:47:47;10.30;99.90
3232;DHT22;1628;48.884;9.210;2022-11-20T11:50:17;10.40;99.90
3232;DHT22;1628;48.884;9.210;2022-11-20T11:52:48;10.40;99.90
3232;DHT22;1628;48.884;9.210;2022-11-20T11:55:28;10.50;99.90
3232;DHT22;1628;48.884;9.210;2022-11-20T11:58:02;10.60;99.90
3232;DHT22;1628;48.884;9.210;2022-11-20T12:00:32;10.80;99.90
3232;DHT22;1628;48.884;9.210;2022-11-20T12:03:05;11.00;99.90
3232;DHT22;1628;48.884;9.210;2022-11-20T12:05:40;11.10;99.90
3232;DHT22;1628;48.884;9.210;2022-11-20T12:08:16;11.00;99.90
3232;DHT22;1628;48.884;9.210;2022-11-20T12:10:48;10.90;99.90
3232;DHT22;1628;48.884;9.210;2022-11-20T12:13:22;10.80;99.90
3232;DHT22;1628;48.884;9.210;2022-11-20T12:15:51;10.80;99.90
3232;DHT22;1628;48.884;9.210;2022-11-20T12:18:21;10.90;99.90
3232;DHT22;1628;48.884;9.210;2022-11-20T12:20:56;10.90;99.90
3232;DHT22;1628;48.884;9.210;2022-11-20T12:23:29;11.00;99.90
3232;DHT22;1628;48.884;9.210;2022-11-20T12:26:02;11.20;99.90
3232;DHT22;1628;48.884;9.210;2022-11-20T12:28:41;11.30;99.90
3232;DHT22;1628;48.884;9.210;2022-11-20T12:31:31;11.20;99.90
3232;DHT22;1628;48.884;9.210;2022-11-20T12:34:16;11.00;99.90
3232;DHT22;1628;48.884;9.210;2022-11-20T12:36:52;10.90;99.90
3232;DHT22;1628;48.884;9.210;2022-11-20T12:39:36;10.90;99.90
3232;DHT22;1628;48.884;9.210;2022-11-20T12:42:34;10.80;99.90
3232;DHT22;1628;48.884;9.210;2022-11-20T12:45:36;10.80;99.90
3232;DHT22;1628;48.884;9.210;2022-11-20T12:48:35;10.80;99.90
3232;DHT22;1628;48.884;9.210;2022-11-20T12:51:19;10.90;99.90
3232;DHT22;1628;48.884;9.210;2022-11-20T12:54:00;10.80;99.90
3232;DHT22;1628;48.884;9.210;2022-11-20T12:56:39;10.80;99.90
3232;DHT22;1628;48.884;9.210;2022-11-20T12:59:23;10.80;99.90
3232;DHT22;1628;48.884;9.210;2022-11-20T13:01:57;10.80;99.90
3232;DHT22;1628;48.884;9.210;2022-11-20T13:04:39;10.90;99.90
3232;DHT22;1628;48.884;9.210;2022-11-20T13:07:12;11.10;99.90
3232;DHT22;1628;48.884;9.210;2022-11-20T13:09:43;11.20;99.90
3232;DHT22;1628;48.884;9.210;2022-11-20T13:12:16;11.20;99.90
3232;DHT22;1628;48.884;9.210;2022-11-20T13:14:50;11.20;99.90
3232;DHT22;1628;48.884;9.210;2022-11-20T13:17:23;11.10;99.90
3232;DHT22;1628;48.884;9.210;2022-11-20T13:19:53;11.00;99.90
3232;DHT22;1628;48.884;9.210;2022-11-20T13:22:27;10.90;99.90
3232;DHT22;1628;48.884;9.210;2022-11-20T13:24:54;10.90;99.90
3232;DHT22;1628;48.884;9.210;2022-11-20T13:27:23;10.80;99.90
3232;DHT22;1628;48.884;9.210;2022-11-20T13:30:01;10.80;99.90
3232;DHT22;1628;48.884;9.210;2022-11-20T13:32:28;10.90;99.90
3232;DHT22;1628;48.884;9.210;2022-11-20T13:34:59;11.00;99.90
3232;DHT22;1628;48.884;9.210;2022-11-20T13:37:31;10.90;99.90
3232;DHT22;1628;48.884;9.210;2022-11-20T13:42:56;11.00;99.90
3232;DHT22;1628;48.884;9.210;2022-11-20T13:45:25;11.10;99.90
3232;DHT22;1628;48.884;9.210;2022-11-20T13:47:53;11.20;99.90
3232;DHT22;1628;48.884;9.210;2022-11-20T13:50:37;11.30;99.90
3232;DHT22;1628;48.884;9.210;2022-11-20T13:53:13;11.30;99.90
3232;DHT22;1628;48.884;9.210;2022-11-20T13:55:50;11.20;99.90
3232;DHT22;1628;48.884;9.210;2022-11-20T13:58:30;11.10;99.90
3232;DHT22;1628;48.884;9.210;2022-11-20T14:01:09;10.90;99.90
3232;DHT22;1628;48.884;9.210;2022-11-20T14:03:36;10.80;99.90
3232;DHT22;1628;48.884;9.210;2022-11-20T14:06:11;10.70;99.90
3232;DHT22;1628;48.884;9.210;2022-11-20T14:08:40;10.70;99.90
3232;DHT22;1628;48.884;9.210;2022-11-20T14:11:15;10.60;99.90
3232;DHT22;1628;48.884;9.210;2022-11-20T14:13:56;10.50;99.90
3232;DHT22;1628;48.884;9.210;2022-11-20T14:16:24;10.50;99.90
3232;DHT22;1628;48.884;9.210;2022-11-20T14:18:51;10.50;99.90
3232;DHT22;1628;48.884;9.210;2022-11-20T14:21:22;10.40;99.90
3232;DHT22;1628;48.884;9.210;2022-11-20T14:23:54;10.30;99.90
3232;DHT22;1628;48.884;9.210;2022-11-20T14:26:21;10.20;99.90
3232;DHT22;1628;48.884;9.210;2022-11-20T14:28:49;10.00;99.90
3232;DHT22;1628;48.884;9.210;2022-11-20T14:31:25;9.90;99.90
3232;DHT22;1628;48.884;9.210;2022-11-20T14:33:53;9.80;99.90
3232;DHT22;1628;48.884;9.210;2022-11-20T14:36:21;9.80;99.90
3232;DHT22;1628;48.884;9.210;2022-11-20T14:38:49;9.60;99.90
3232;DHT22;1628;48.884;9.210;2022-11-20T14:41:18;9.50;99.90
3232;DHT22;1628;48.884;9.210;2022-11-20T14:43:51;9.50;99.90
3232;DHT22;1628;48.884;9.210;2022-11-20T14:46:21;9.40;99.90
3232;DHT22;1628;48.884;9.210;2022-11-20T14:48:50;9.30;99.90
3232;DHT22;1628;48.884;9.210;2022-11-20T14:51:27;9.20;99.90
3232;DHT22;1628;48.884;9.210;2022-11-20T14:53:54;9.20;99.90
3232;DHT22;1628;48.884;9.210;2022-11-20T14:56:22;9.10;99.90
3232;DHT22;1628;48.884;9.210;2022-11-20T14:58:55;9.10;99.90
3232;DHT22;1628;48.884;9.210;2022-11-20T15:01:28;9.00;99.90
3232;DHT22;1628;48.884;9.210;2022-11-20T15:04:00;8.90;99.90
3232;DHT22;1628;48.884;9.210;2022-11-20T15:06:28;8.80;99.90
3232;DHT22;1628;48.884;9.210;2022-11-20T15:08:55;8.80;99.90
3232;DHT22;1628;48.884;9.210;2022-11-20T15:11:28;8.70;99.90
3232;DHT22;1628;48.884;9.210;2022-11-20T15:13:55;8.70;99.90
3232;DHT22;1628;48.884;9.210;2022-11-20T15:16:23;8.70;99.90
3232;DHT22;1628;48.884;9.210;2022-11-20T15:18:53;8.60;99.90
3232;DHT22;1628;48.884;9.210;2022-11-20T15:21:20;8.60;99.90
3232;DHT22;1628;48.884;9.210;2022-11-20T15:23:47;8.50;99.90
3232;DHT22;1628;48.884;9.210;2022-11-20T15:26:18;8.50;99.90
3232;DHT22;1628;48.884;9.210;2022-11-20T15:28:47;8.50;99.90
3232;DHT22;1628;48.884;9.210;2022-11-20T15:31:17;8.50;99.90
3232;DHT22;1628;48.884;9.210;2022-11-20T15:33:44;8.40;99.90
3232;DHT22;1628;48.884;9.210;2022-11-20T15:36:12;8.40;99.90
3232;DHT22;1628;48.884;9.210;2022-11-20T15:38:39;8.30;99.90
3232;DHT22;1628;48.884;9.210;2022-11-20T15:41:06;8.30;99.90
3232;DHT22;1628;48.884;9.210;2022-11-20T15:43:33;8.30;99.90
3232;DHT22;1628;48.884;9.210;2022-11-20T15:46:03;8.20;99.90
3232;DHT22;1628;48.884;9.210;2022-11-20T15:48:34;8.20;99.90
3232;DHT22;1628;48.884;9.210;2022-11-20T15:51:03;8.10;99.90
3232;DHT22;1628;48.884;9.210;2022-11-20T15:53:33;8.10;99.90
3232;DHT22;1628;48.884;9.210;2022-11-20T15:56:00;8.10;99.90
3232;DHT22;1628;48.884;9.210;2022-11-20T15:58:27;8.00;99.90
3232;DHT22;1628;48.884;9.210;2022-11-20T16:00:53;8.00;99.90
3232;DHT22;1628;48.884;9.210;2022-11-20T16:03:20;7.90;99.90
3232;DHT22;1628;48.884;9.210;2022-11-20T16:05:47;7.90;99.90
3232;DHT22;1628;48.884;9.210;2022-11-20T16:08:14;7.90;99.90
3232;DHT22;1628;48.884;9.210;2022-11-20T16:10:42;7.90;99.90
3232;DHT22;1628;48.884;9.210;2022-11-20T16:13:13;7.90;99.90
3232;DHT22;1628;48.884;9.210;2022-11-20T16:15:59;7.90;99.90
3232;DHT22;1628;48.884;9.210;2022-11-20T16:18:27;7.90;99.90
3232;DHT22;1628;48.884;9.210;2022-11-20T16:20:54;7.90;99.90
3232;DHT22;1628;48.884;9.210;2022-11-20T16:23:21;7.90;99.90
3232;DHT22;1628;48.884;9.210;2022-11-20T16:25:50;7.90;99.90
3232;DHT22;1628;48.884;9.210;2022-11-20T16:28:17;7.90;99.90
3232;DHT22;1628;48.884;9.210;2022-11-20T16:30:45;7.90;99.90
3232;DHT22;1628;48.884;9.210;2022-11-20T16:33:13;7.80;99.90